Time;durP1;ratioP1;P1;durP2;ratioP2;P2;SDS_P1;SDS_P2;PMS_P1;PMS_P2;Temp;Humidity;BMP_temperature;BMP_pressure;BME280_temperature;BME280_humidity;BME280_pressure;Samples;Min_cycle;Max_cycle;Signal;HPM_P1;HPM_P2
2022/02/05 00:01:08;;;;;;;9.18;4.25;;;;;;;5.85;100.00;98693.63;5011987;28;20400;-75
2022/02/05 00:03:59;;;;;;;5.90;2.63;;;;;;;5.84;100.00;98685.84;4998292;28;20038;-75
2022/02/05 00:06:47;;;;;;;6.05;2.53;;;;;;;5.90;100.00;98682.25;4998017;28;20117;-76
2022/02/05 00:15:23;;;;;;;5.43;2.70;;;;;;;5.90;100.00;98690.91;5012590;28;20045;-75
2022/02/05 00:39:57;;;;;;;2.92;1.65;;;;;;;5.81;100.00;98678.13;5014827;28;20337;-75
2022/02/05 00:42:37;;;;;;;3.10;1.80;;;;;;;5.82;100.00;98685.06;5015566;28;20038;-76
2022/02/05 00:45:22;;;;;;;3.83;1.83;;;;;;;5.80;100.00;98676.41;5015493;28;20041;-76
2022/02/05 00:48:06;;;;;;;3.35;2.10;;;;;;;5.83;100.00;98665.97;5015282;28;20042;-76
2022/02/05 00:50:59;;;;;;;2.83;1.70;;;;;;;5.75;100.00;98666.16;5086528;28;20061;-76
2022/02/05 00:53:47;;;;;;;3.58;1.83;;;;;;;5.85;100.00;98664.19;5014592;28;20431;-76
2022/02/05 00:59:28;;;;;;;4.20;2.00;;;;;;;5.85;100.00;98671.97;5014765;28;20050;-76
2022/02/05 01:02:13;;;;;;;4.15;2.28;;;;;;;5.78;100.00;98663.44;5014591;28;20416;-76
2022/02/05 01:04:57;;;;;;;4.78;1.92;;;;;;;5.78;100.00;98673.00;5017022;28;20053;-75
2022/02/05 01:07:41;;;;;;;5.60;2.95;;;;;;;5.85;100.00;98669.38;5015068;28;20045;-76
2022/02/05 01:10:27;;;;;;;6.40;3.00;;;;;;;5.75;100.00;98654.88;5000574;28;20069;-75
2022/02/05 01:13:13;;;;;;;8.55;2.40;;;;;;;5.80;100.00;98668.63;5014347;28;20355;-75
2022/02/05 01:19:00;;;;;;;4.07;1.95;;;;;;;5.86;100.00;98666.72;5015023;28;20462;-76
2022/02/05 01:21:51;;;;;;;3.83;1.88;;;;;;;5.85;100.00;98674.59;5014216;28;20045;-76
2022/02/05 01:24:36;;;;;;;3.05;1.60;;;;;;;5.89;100.00;98671.00;5014196;28;20042;-75
2022/02/05 01:27:39;;;;;;;2.58;1.67;;;;;;;5.84;100.00;98665.91;5014249;28;20124;-75
2022/02/05 01:30:29;;;;;;;5.90;2.78;;;;;;;5.87;100.00;98670.19;5013982;28;20065;-75
2022/02/05 01:55:13;;;;;;;5.20;2.95;;;;;;;5.93;100.00;98651.88;5013869;28;20046;-75
2022/02/05 01:57:24;;;;;;;3.75;2.50;;;;;;;5.94;100.00;98653.56;5008307;28;20050;-76
2022/02/05 02:06:24;;;;;;;3.05;2.28;;;;;;;6.09;100.00;98694.78;5014211;28;20050;-76
2022/02/05 02:12:17;;;;;;;2.15;1.20;;;;;;;6.16;100.00;98694.66;5013444;28;20374;-76
2022/02/05 02:15:08;;;;;;;1.95;1.05;;;;;;;6.09;100.00;98700.00;4999398;28;20515;-75
2022/02/05 02:21:55;;;;;;;2.08;0.98;;;;;;;6.07;100.00;98698.31;5013971;28;20117;-75
2022/02/05 02:29:51;;;;;;;1.20;0.90;;;;;;;6.05;100.00;98713.13;5013113;28;20037;-77
2022/02/05 02:32:39;;;;;;;1.50;0.77;;;;;;;6.00;100.00;98744.41;5013832;28;20069;-75
2022/02/05 02:35:27;;;;;;;0.60;0.43;;;;;;;5.86;100.00;98743.84;5013770;28;20436;-78
2022/02/05 02:38:15;;;;;;;2.00;0.50;;;;;;;5.72;100.00;98764.06;5013850;28;20042;-77
2022/02/05 02:41:10;;;;;;;1.17;0.47;;;;;;;5.48;100.00;98773.25;5012053;28;20114;-77
2022/02/05 02:43:54;;;;;;;0.82;0.45;;;;;;;5.33;100.00;98777.00;5013122;28;20045;-77
2022/02/05 02:46:39;;;;;;;1.65;0.63;;;;;;;5.35;100.00;98794.28;5012939;28;20042;-77
2022/02/05 02:58:36;;;;;;;0.63;0.40;;;;;;;5.01;100.00;98824.38;5012737;28;20285;-77
2022/02/05 03:01:21;;;;;;;0.63;0.20;;;;;;;5.01;100.00;98853.78;5012752;28;20394;-76
2022/02/05 03:04:05;;;;;;;0.57;0.25;;;;;;;5.08;100.00;98864.91;4998966;28;20052;-77
2022/02/05 03:06:50;;;;;;;0.63;0.38;;;;;;;4.92;100.00;98877.28;5012617;28;20492;-77
2022/02/05 03:09:35;;;;;;;0.50;0.15;;;;;;;4.97;100.00;98872.00;4998674;28;20046;-76
2022/02/05 03:12:20;;;;;;;1.20;0.10;;;;;;;4.93;100.00;98892.81;5012707;28;20471;-76
2022/02/05 03:15:06;;;;;;;1.23;0.30;;;;;;;4.87;100.00;98905.03;5013343;28;20042;-77
2022/02/05 03:18:01;;;;;;;0.90;0.10;;;;;;;4.76;100.00;98930.31;4998984;28;20420;-76
2022/02/05 03:20:46;;;;;;;0.10;0.00;;;;;;;4.49;100.00;98960.97;5083699;28;20510;-77
2022/02/05 03:23:31;;;;;;;1.38;0.55;;;;;;;4.10;100.00;98957.16;5013118;28;20121;-77
2022/02/05 03:26:15;;;;;;;1.05;0.22;;;;;;;3.92;100.00;98953.06;5012365;28;20046;-78
2022/02/05 03:28:59;;;;;;;0.70;0.20;;;;;;;3.75;100.00;98961.03;5012489;28;20038;-77
2022/02/05 03:31:43;;;;;;;0.88;0.17;;;;;;;3.38;100.00;98976.94;5013003;28;20056;-77
2022/02/05 03:34:28;;;;;;;0.20;0.20;;;;;;;3.27;100.00;98974.44;5012337;28;20038;-76
2022/02/05 03:37:13;;;;;;;0.70;0.10;;;;;;;3.21;100.00;98987.41;5012226;28;20053;-77
2022/02/05 03:39:57;;;;;;;0.90;0.20;;;;;;;3.12;100.00;98982.34;5012966;28;20348;-76
2022/02/05 03:42:42;;;;;;;1.90;0.38;;;;;;;3.07;100.00;99001.34;5012111;28;20042;-76
2022/02/05 03:45:27;;;;;;;0.70;0.40;;;;;;;3.03;100.00;99019.50;4998526;28;20049;-77
2022/02/05 03:48:11;;;;;;;0.90;0.20;;;;;;;2.85;100.00;99026.50;5012137;28;20042;-76
2022/02/05 03:50:55;;;;;;;1.13;0.30;;;;;;;2.78;100.00;99041.22;5012348;28;20321;-76
2022/02/05 03:53:40;;;;;;;1.35;0.52;;;;;;;2.93;100.00;99027.34;5014437;28;20050;-76
2022/02/05 03:56:24;;;;;;;0.20;0.08;;;;;;;2.97;100.00;99047.13;5016142;28;20073;-77
2022/02/05 03:59:08;;;;;;;2.53;0.80;;;;;;;2.95;100.00;99054.88;5001815;28;20046;-76
2022/02/05 04:01:55;;;;;;;0.60;0.20;;;;;;;3.01;100.00;99065.19;5001733;28;20049;-77
2022/02/05 04:04:40;;;;;;;1.30;0.22;;;;;;;2.80;100.00;99065.34;5016088;28;20042;-77
2022/02/05 04:07:27;;;;;;;0.60;0.20;;;;;;;2.91;100.00;99083.38;5015341;28;20336;-77
2022/02/05 04:10:16;;;;;;;0.43;0.10;;;;;;;2.83;100.00;99073.09;5001434;28;20053;-77
2022/02/05 04:16:22;;;;;;;2.00;0.30;;;;;;;2.83;100.00;99098.06;5015246;28;20130;-77
2022/02/05 04:19:06;;;;;;;0.90;0.10;;;;;;;2.85;100.00;99099.78;5015175;28;20045;-76
2022/02/05 04:21:51;;;;;;;0.65;0.20;;;;;;;2.94;100.00;99119.59;5015806;28;20472;-77
2022/02/05 04:24:36;;;;;;;0.65;0.10;;;;;;;2.72;100.00;99116.22;5015715;28;20059;-77
2022/02/05 04:27:20;;;;;;;2.47;0.20;;;;;;;2.80;100.00;99120.50;5015065;28;20050;-76
2022/02/05 04:30:06;;;;;;;1.33;0.30;;;;;;;2.87;100.00;99129.09;5015120;28;20069;-76
2022/02/05 04:32:51;;;;;;;2.53;0.40;;;;;;;2.84;100.00;99134.28;5014898;28;20042;-77
2022/02/05 04:35:35;;;;;;;0.40;0.10;;;;;;;2.83;100.00;99135.16;5014876;28;20050;-76
2022/02/05 04:38:21;;;;;;;2.33;0.88;;;;;;;2.94;100.00;99148.91;5015685;28;20042;-76
2022/02/05 05:10:21;;;;;;;2.53;0.20;;;;;;;3.35;100.00;99189.25;5014396;28;20052;-76
2022/02/05 05:13:11;;;;;;;0.77;0.20;;;;;;;3.31;100.00;99202.19;5014295;28;20061;-76
2022/02/05 05:21:46;;;;;;;0.77;0.30;;;;;;;3.26;100.00;99197.06;5014751;28;20479;-76
2022/02/05 05:24:31;;;;;;;1.30;0.75;;;;;;;3.33;100.00;99222.03;5014138;28;20050;-76
2022/02/05 05:27:15;;;;;;;1.42;0.68;;;;;;;3.38;100.00;99222.00;5014290;28;20042;-76
2022/02/05 05:30:00;;;;;;;5.03;0.47;;;;;;;3.33;100.00;99219.44;5014076;28;20042;-76
2022/02/05 05:32:44;;;;;;;1.95;0.20;;;;;;;3.21;100.00;99228.13;5000191;28;20038;-76
2022/02/05 05:35:29;;;;;;;1.77;0.55;;;;;;;3.21;100.00;99232.44;5013980;28;20038;-77
2022/02/05 05:38:13;;;;;;;1.20;0.28;;;;;;;3.28;100.00;99239.31;5014784;28;20432;-76
2022/02/05 05:40:58;;;;;;;1.60;0.40;;;;;;;3.26;100.00;99235.88;5000157;28;20045;-75
2022/02/05 05:46:48;;;;;;;3.35;0.50;;;;;;;3.27;100.00;99237.59;5013912;28;20048;-76
2022/02/05 05:52:36;;;;;;;5.13;1.33;;;;;;;3.14;100.00;99248.88;5013726;28;20038;-76
2022/02/05 05:55:21;;;;;;;0.73;0.40;;;;;;;3.12;100.00;99248.88;5014221;28;20061;-76
2022/02/05 05:58:05;;;;;;;3.00;0.50;;;;;;;3.15;100.00;99259.22;5014381;28;20091;-76
2022/02/05 06:00:50;;;;;;;1.20;0.32;;;;;;;3.24;100.00;99269.50;4999768;28;20424;-76
2022/02/05 06:03:34;;;;;;;4.53;0.75;;;;;;;3.24;100.00;99263.47;5014198;28;20046;-76
2022/02/05 06:06:18;;;;;;;1.10;0.68;;;;;;;3.26;100.00;99264.34;5013582;28;20038;-75
2022/02/05 06:09:03;;;;;;;2.47;1.02;;;;;;;3.18;100.00;99266.09;5013503;28;20513;-76
2022/02/05 06:11:47;;;;;;;4.05;1.23;;;;;;;3.18;100.00;99266.94;4999612;28;20054;-76
2022/02/05 06:14:32;;;;;;;3.38;0.80;;;;;;;3.18;100.00;99277.31;5013332;28;20042;-75
2022/02/05 06:17:23;;;;;;;3.33;0.60;;;;;;;3.14;100.00;99287.69;4999569;28;20159;-75
2022/02/05 06:20:08;;;;;;;5.60;1.08;;;;;;;3.13;100.00;99284.25;4999347;28;20149;-76
2022/02/05 06:22:52;;;;;;;2.72;0.60;;;;;;;3.15;100.00;99287.69;5012897;28;20062;-76
2022/02/05 06:25:38;;;;;;;4.85;0.50;;;;;;;3.14;100.00;99290.28;5012884;28;20143;-76
2022/02/05 06:28:22;;;;;;;2.95;0.47;;;;;;;3.10;100.00;99302.38;5013215;28;20038;-76
2022/02/05 06:31:06;;;;;;;1.90;0.45;;;;;;;3.12;100.00;99310.09;5013168;28;20355;-77
2022/02/05 06:33:51;;;;;;;2.25;1.40;;;;;;;3.10;100.00;99309.28;5013173;28;20052;-76
2022/02/05 06:36:36;;;;;;;5.85;2.05;;;;;;;3.24;100.00;99320.44;5013839;28;20095;-76
2022/02/05 06:39:21;;;;;;;5.93;1.95;;;;;;;3.22;100.00;99317.00;5013629;28;20061;-76
2022/02/05 06:42:06;;;;;;;5.03;1.90;;;;;;;3.19;100.00;99322.19;5012837;28;20046;-75
2022/02/05 06:44:50;;;;;;;5.43;1.20;;;;;;;3.15;100.00;99336.88;5011351;28;20081;-74
2022/02/05 06:47:35;;;;;;;2.67;0.88;;;;;;;3.12;100.00;99335.97;4997462;28;20045;-75
2022/02/05 06:50:19;;;;;;;4.47;1.05;;;;;;;3.09;100.00;99339.47;5012164;28;20045;-75
2022/02/05 06:53:03;;;;;;;5.07;1.13;;;;;;;3.18;100.00;99331.66;5011171;28;20042;-75
2022/02/05 06:55:48;;;;;;;2.60;0.85;;;;;;;3.24;100.00;99344.59;5011007;28;20046;-75
2022/02/05 06:58:32;;;;;;;4.20;0.90;;;;;;;3.23;100.00;99334.25;5011778;28;20049;-75
2022/02/05 07:01:17;;;;;;;9.18;2.15;;;;;;;3.23;100.00;99345.44;5011676;28;20050;-75
2022/02/05 07:04:01;;;;;;;8.27;2.03;;;;;;;3.30;100.00;99348.03;4997132;28;20053;-75
2022/02/05 07:06:45;;;;;;;4.75;1.33;;;;;;;3.31;100.00;99348.00;5011120;28;20045;-75
2022/02/05 07:09:31;;;;;;;3.72;0.80;;;;;;;3.19;100.00;99337.72;5011253;28;20455;-75
2022/02/05 07:12:15;;;;;;;4.60;1.27;;;;;;;3.37;100.00;99355.75;5011426;28;20564;-75
2022/02/05 07:15:05;;;;;;;9.90;2.88;;;;;;;3.26;100.00;99349.78;5012286;28;20042;-75
2022/02/05 07:18:07;;;;;;;9.35;3.03;;;;;;;3.34;100.00;99355.78;5012544;28;20113;-75
2022/02/05 07:21:06;;;;;;;11.70;3.60;;;;;;;3.33;100.00;99348.88;5012529;28;20042;-75
2022/02/05 07:29:53;;;;;;;8.80;2.85;;;;;;;3.44;100.00;99366.97;5016164;28;20042;-75
2022/02/05 07:32:38;;;;;;;83.72;46.97;;;;;;;3.56;100.00;99355.72;5015887;28;20058;-75
2022/02/05 07:35:25;;;;;;;111.72;46.97;;;;;;;3.69;100.00;99367.75;5016572;28;20066;-75
2022/02/05 07:38:09;;;;;;;28.17;15.50;;;;;;;3.74;100.00;99358.22;5002338;28;20042;-75
2022/02/05 07:40:53;;;;;;;26.85;20.60;;;;;;;3.88;100.00;99369.38;5016512;28;20414;-75
2022/02/05 07:43:38;;;;;;;98.28;75.93;;;;;;;3.82;100.00;99358.19;5016303;28;20053;-75
2022/02/05 07:46:23;;;;;;;171.13;122.57;;;;;;;3.97;100.00;99361.56;5015787;28;20079;-75
2022/02/05 07:49:11;;;;;;;29.05;22.90;;;;;;;4.13;100.00;99367.53;5015697;28;20042;-75
2022/02/05 07:51:55;;;;;;;194.05;62.60;;;;;;;4.13;100.00;99358.88;5016917;28;20069;-75
2022/02/05 07:54:40;;;;;;;64.30;39.72;;;;;;;4.25;100.00;99370.88;5016605;28;20050;-75
2022/02/05 07:57:27;;;;;;;106.47;50.58;;;;;;;4.26;100.00;99380.38;5015476;28;20046;-75
2022/02/05 08:00:12;;;;;;;81.00;41.05;;;;;;;4.21;100.00;99377.84;5015752;28;20054;-75
2022/02/05 08:02:59;;;;;;;27.10;13.45;;;;;;;4.33;100.00;99387.28;5014801;28;20052;-74
2022/02/05 08:05:43;;;;;;;7.38;2.75;;;;;;;4.43;100.00;99384.59;5013626;28;20053;-74
2022/02/05 08:08:31;;;;;;;39.25;15.27;;;;;;;4.28;100.00;99384.69;5013428;28;20422;-74
2022/02/05 08:11:17;;;;;;;24.13;9.43;;;;;;;4.18;100.00;99376.09;5013452;28;20046;-74
2022/02/05 08:14:07;;;;;;;30.77;12.88;;;;;;;4.18;100.00;99365.75;4999583;28;20034;-74
2022/02/05 08:17:12;;;;;;;16.40;6.15;;;;;;;4.20;100.00;99361.41;5013358;28;20432;-74
2022/02/05 08:19:57;;;;;;;17.13;4.78;;;;;;;4.31;100.00;99374.31;5013843;28;20081;-75
2022/02/05 08:22:42;;;;;;;7.35;2.33;;;;;;;4.36;100.00;99387.25;5016323;28;20075;-74
2022/02/05 08:25:27;;;;;;;10.50;2.10;;;;;;;4.39;100.00;99366.50;5014388;28;20060;-75
2022/02/05 08:28:11;;;;;;;4.75;1.20;;;;;;;4.40;100.00;99368.22;5000830;28;20111;-75
2022/02/05 08:30:55;;;;;;;4.47;1.85;;;;;;;4.40;100.00;99376.84;5015805;28;20038;-75
2022/02/05 08:33:43;;;;;;;9.20;2.88;;;;;;;4.44;100.00;99367.31;5014980;28;20054;-75
2022/02/05 08:36:31;;;;;;;28.67;11.18;;;;;;;4.33;100.00;99384.69;5014718;28;20120;-74
2022/02/05 08:39:17;;;;;;;24.75;9.45;;;;;;;4.61;100.00;99383.59;5013861;28;20046;-75
2022/02/05 08:42:02;;;;;;;11.98;5.60;;;;;;;4.56;100.00;99384.53;5013108;28;20046;-75
2022/02/05 08:44:47;;;;;;;13.00;5.13;;;;;;;4.59;100.00;99387.94;5013739;28;20061;-76
2022/02/05 08:47:31;;;;;;;12.60;3.90;;;;;;;4.60;100.00;99394.00;4999257;28;20042;-74
2022/02/05 08:50:16;;;;;;;48.22;23.48;;;;;;;4.53;100.00;99406.16;5007181;28;20057;-75
2022/02/05 08:53:00;;;;;;;14.75;6.68;;;;;;;4.61;100.00;99393.97;5012792;28;20072;-75
2022/02/05 08:55:46;;;;;;;15.55;5.68;;;;;;;4.82;100.00;99405.06;5000194;28;20079;-75
2022/02/05 08:58:31;;;;;;;6.95;2.35;;;;;;;4.72;100.00;99406.03;5032640;28;20061;-74
2022/02/05 09:01:24;;;;;;;5.47;1.65;;;;;;;4.75;100.00;99380.06;5032811;28;20057;-74
2022/02/05 09:07:11;;;;;;;5.25;1.50;;;;;;;5.02;100.00;99397.13;5034177;28;20045;-75
2022/02/05 09:13:06;;;;;;;11.38;3.38;;;;;;;5.18;100.00;99413.41;5034765;28;20102;-75
2022/02/05 09:15:47;;;;;;;6.70;2.45;;;;;;;5.03;100.00;99419.59;5033951;28;20049;-74
2022/02/05 09:18:33;;;;;;;7.47;2.83;;;;;;;5.09;100.00;99420.41;5033980;28;20057;-75
2022/02/05 09:21:18;;;;;;;6.22;1.95;;;;;;;5.02;100.00;99407.50;5034202;28;20056;-74
2022/02/05 09:24:06;;;;;;;4.72;2.17;;;;;;;4.98;100.00;99419.63;5045129;27;20031;-76
2022/02/05 09:26:57;;;;;;;8.40;2.20;;;;;;;5.11;100.00;99430.78;5138277;27;20035;-76
2022/02/05 09:30:02;;;;;;;9.13;2.55;;;;;;;5.18;100.00;99427.25;5137330;27;20047;-75
2022/02/05 09:32:46;;;;;;;5.30;1.70;;;;;;;5.25;100.00;99428.06;5137999;27;20039;-74
2022/02/05 09:35:31;;;;;;;6.90;1.88;;;;;;;5.42;100.00;99438.28;5138005;27;20039;-75
2022/02/05 09:38:15;;;;;;;18.42;6.40;;;;;;;5.32;100.00;99434.91;5138253;27;20070;-74
2022/02/05 09:41:00;;;;;;;29.00;7.43;;;;;;;5.36;100.00;99437.47;5122919;27;20463;-75
2022/02/05 09:43:47;;;;;;;58.08;17.02;;;;;;;5.38;100.00;99427.06;5136852;27;20506;-74
2022/02/05 09:46:32;;;;;;;142.32;36.15;;;;;;;5.59;100.00;99428.59;5136571;27;20050;-74
2022/02/05 09:49:18;;;;;;;232.13;59.97;;;;;;;5.56;100.00;99421.69;5121360;27;20039;-75
2022/02/05 09:52:19;;;;;;;51.17;14.43;;;;;;;5.58;100.00;99439.84;5135355;27;20043;-74
2022/02/05 09:55:03;;;;;;;229.65;54.97;;;;;;;5.62;100.00;99442.41;5136234;27;20051;-74
2022/02/05 09:57:48;;;;;;;50.75;14.48;;;;;;;5.41;100.00;99432.22;5137104;27;20046;-74
2022/02/05 10:00:34;;;;;;;9.13;3.50;;;;;;;5.71;100.00;99457.00;5137547;27;20074;-75
2022/02/05 10:03:25;;;;;;;61.85;25.25;;;;;;;5.49;100.00;99450.31;5136523;27;20061;-75
2022/02/05 10:06:29;;;;;;;21.40;10.25;;;;;;;5.32;100.00;99455.69;5137182;27;20118;-76
2022/02/05 10:09:15;;;;;;;6.15;2.80;;;;;;;5.26;100.00;99441.00;5136666;27;20039;-75
2022/02/05 10:12:00;;;;;;;8.80;2.67;;;;;;;5.06;100.00;99459.34;5136879;27;20322;-75
2022/02/05 10:14:50;;;;;;;7.70;2.35;;;;;;;5.01;100.00;99458.56;5060554;27;20064;-83
2022/02/05 10:17:45;;;;;;;20.77;3.22;;;;;;;5.20;100.00;99446.28;5013455;28;20450;-83
2022/02/05 10:20:30;;;;;;;5.07;1.90;;;;;;;5.58;100.00;99455.41;5012336;28;20424;-81
2022/02/05 10:23:15;;;;;;;5.60;2.10;;;;;;;5.77;100.00;99456.94;5012469;28;20061;-82
2022/02/05 10:26:00;;;;;;;4.03;1.55;;;;;;;5.48;100.00;99454.66;5012673;28;20517;-83
2022/02/05 10:28:59;;;;;;;7.45;2.13;;;;;;;5.69;100.00;99456.19;5011575;28;20038;-82
2022/02/05 10:32:34;;;;;;;6.20;2.13;;;;;;;5.90;100.00;99467.22;5011647;28;20045;-82
2022/02/05 10:38:34;;;;;;;11.55;3.70;;;;;;;5.99;100.00;99459.34;5013798;28;20114;-83
2022/02/05 10:44:22;;;;;;;9.80;2.35;;;;;;;5.90;100.00;99468.06;5012000;28;20436;-82
2022/02/05 10:47:07;;;;;;;10.20;2.47;;;;;;;5.90;100.00;99460.25;5012333;28;20071;-81
2022/02/05 10:49:52;;;;;;;8.52;2.08;;;;;;;5.98;100.00;99455.88;5025969;28;20428;-83
2022/02/05 10:52:39;;;;;;;5.82;2.08;;;;;;;5.94;100.00;99467.19;5013259;28;20065;-83
2022/02/05 10:55:45;;;;;;;10.00;2.42;;;;;;;6.01;100.00;99463.66;4999410;28;20064;-82
2022/02/05 11:07:46;;;;;;;4.82;2.20;;;;;;;6.52;100.00;99435.22;5012810;28;20382;-84
2022/02/05 11:19:26;;;;;;;14.88;6.93;;;;;;;7.02;100.00;99459.63;5013282;28;20057;-83
2022/02/05 11:22:10;;;;;;;13.82;7.95;;;;;;;6.91;100.00;99451.09;5012756;28;20038;-83
2022/02/05 11:24:55;;;;;;;5.47;2.40;;;;;;;6.95;100.00;99449.31;5013818;28;20042;-83
2022/02/05 11:27:44;;;;;;;5.55;2.47;;;;;;;6.96;100.00;99444.09;5013263;28;20038;-82
2022/02/05 11:30:31;;;;;;;5.25;2.70;;;;;;;7.09;100.00;99456.91;5012989;28;20410;-84
2022/02/05 11:33:23;;;;;;;10.80;2.70;;;;;;;6.84;100.00;99451.22;4999237;28;20117;-81
2022/02/05 11:39:01;;;;;;;13.52;4.63;;;;;;;6.36;100.00;99458.88;5013425;28;20077;-84
2022/02/05 11:41:46;;;;;;;19.70;8.68;;;;;;;6.24;100.00;99465.06;5012923;28;20038;-83
2022/02/05 11:44:39;;;;;;;9.70;5.05;;;;;;;6.19;100.00;99464.28;4998511;28;20366;-82
2022/02/05 11:47:26;;;;;;;6.35;1.65;;;;;;;5.98;100.00;99473.19;5012309;28;20038;-82
2022/02/05 11:50:13;;;;;;;4.57;1.85;;;;;;;5.74;100.00;99466.50;5012001;28;20229;-83
2022/02/05 11:52:59;;;;;;;6.38;3.08;;;;;;;5.61;100.00;99473.56;5012213;28;20049;-83
2022/02/05 11:55:45;;;;;;;5.22;1.60;;;;;;;5.74;100.00;99471.72;5012661;28;20489;-82
2022/02/05 11:58:57;;;;;;;11.40;3.85;;;;;;;5.79;100.00;99478.59;5015417;28;20041;-84
2022/02/05 12:01:43;;;;;;;8.93;2.58;;;;;;;5.98;100.00;99491.41;5031804;28;20049;-83
2022/02/05 12:04:29;;;;;;;13.25;5.25;;;;;;;6.09;100.00;99479.16;5032120;28;20042;-83
2022/02/05 12:07:17;;;;;;;17.30;7.30;;;;;;;6.12;100.00;99492.13;5032320;28;20049;-82
2022/02/05 12:10:33;;;;;;;14.40;4.82;;;;;;;6.08;100.00;99485.25;5017676;28;20050;-85
2022/02/05 12:13:23;;;;;;;25.52;8.85;;;;;;;6.01;100.00;99481.84;5032868;28;20147;-84
2022/02/05 12:16:09;;;;;;;22.40;12.43;;;;;;;6.21;100.00;99493.75;5035741;28;20038;-84
2022/02/05 12:19:14;;;;;;;36.55;10.38;;;;;;;6.04;100.00;99473.97;5035416;28;20042;-82
2022/02/05 12:22:04;;;;;;;18.50;5.05;;;;;;;5.88;100.00;99474.16;5035645;28;20041;-84
2022/02/05 12:25:13;;;;;;;20.23;6.32;;;;;;;6.22;100.00;99475.50;5034827;28;20432;-83
2022/02/05 12:28:31;;;;;;;23.33;6.25;;;;;;;5.95;100.00;99484.50;5034777;28;20045;-84
2022/02/05 12:31:20;;;;;;;79.78;41.45;;;;;;;6.00;100.00;99492.25;5020860;28;20041;-83
2022/02/05 12:34:13;;;;;;;18.83;8.85;;;;;;;5.81;100.00;99499.34;5035417;28;20060;-83
2022/02/05 12:36:59;;;;;;;22.13;10.80;;;;;;;5.71;100.00;99515.91;5036027;28;20091;-83
2022/02/05 12:39:44;;;;;;;10.88;5.30;;;;;;;5.25;100.00;99506.81;5020824;28;20084;-83
2022/02/05 12:42:31;;;;;;;13.75;6.55;;;;;;;4.91;100.00;99501.03;5021172;28;20128;-84
2022/02/05 12:45:19;;;;;;;7.55;3.97;;;;;;;4.74;100.00;99511.50;5034690;28;20041;-83
2022/02/05 12:48:07;;;;;;;25.05;13.32;;;;;;;4.61;100.00;99505.50;5034981;28;20113;-83
2022/02/05 12:50:56;;;;;;;14.77;8.05;;;;;;;4.43;100.00;99535.03;5021162;28;20335;-83
2022/02/05 12:53:42;;;;;;;15.57;5.70;;;;;;;4.18;100.00;99530.78;5035231;28;20052;-83
2022/02/05 12:56:34;;;;;;;5.60;3.03;;;;;;;3.94;100.00;99540.38;5034172;28;20367;-83
2022/02/05 12:59:27;;;;;;;7.22;4.88;;;;;;;3.93;100.00;99532.59;5035193;28;20067;-83
2022/02/05 13:02:14;;;;;;;8.82;6.35;;;;;;;3.97;100.00;99537.78;5034490;28;20067;-83
2022/02/05 13:04:59;;;;;;;7.47;4.18;;;;;;;4.21;100.00;99530.78;5034429;28;20057;-82
2022/02/05 13:07:46;;;;;;;26.48;18.13;;;;;;;4.33;100.00;99524.69;5020954;28;20094;-82
2022/02/05 13:10:44;;;;;;;53.05;17.50;;;;;;;4.50;100.00;99507.31;5020819;28;20042;-83
2022/02/05 13:13:29;;;;;;;9.80;4.13;;;;;;;4.48;100.00;99515.97;5034951;28;20090;-82
2022/02/05 13:16:13;;;;;;;9.18;5.25;;;;;;;4.36;100.00;99535.91;5034746;28;20052;-82
2022/02/05 13:19:09;;;;;;;10.82;4.75;;;;;;;4.44;100.00;99531.53;5034833;28;20336;-82
2022/02/05 13:25:37;;;;;;;4.55;2.05;;;;;;;4.90;100.00;99538.22;5033684;28;20041;-82
2022/02/05 13:34:33;;;;;;;15.13;5.93;;;;;;;5.18;100.00;99531.09;5033857;28;20049;-83
2022/02/05 13:37:29;;;;;;;10.93;5.65;;;;;;;5.24;100.00;99533.66;5033775;28;20038;-82
2022/02/05 13:40:18;;;;;;;6.95;2.22;;;;;;;5.37;100.00;99545.66;5033809;28;20046;-82
2022/02/05 13:43:14;;;;;;;7.63;2.97;;;;;;;5.63;100.00;99549.78;5034447;28;20052;-81
2022/02/05 13:46:12;;;;;;;10.60;4.30;;;;;;;5.53;100.00;99546.41;5034629;28;20042;-82
2022/02/05 13:49:18;;;;;;;5.40;2.47;;;;;;;5.73;100.00;99553.16;5034819;28;20045;-83
2022/02/05 13:52:07;;;;;;;3.35;1.23;;;;;;;5.56;100.00;99564.56;5019762;28;20045;-82
2022/02/05 13:54:51;;;;;;;5.57;1.65;;;;;;;5.74;100.00;99560.06;5019417;28;20427;-81
2022/02/05 13:57:35;;;;;;;4.90;1.52;;;;;;;5.75;100.00;99554.00;5019610;28;20053;-83
2022/02/05 14:00:20;;;;;;;4.63;1.58;;;;;;;5.54;100.00;99579.28;5034443;28;20053;-82
2022/02/05 14:03:08;;;;;;;5.40;2.38;;;;;;;5.19;100.00;99550.13;5033543;28;20056;-76
2022/02/05 14:06:07;;;;;;;4.55;2.20;;;;;;;5.35;100.00;99577.72;5031530;28;20080;-76
2022/02/05 14:08:55;;;;;;;6.70;2.33;;;;;;;5.32;100.00;99577.75;5032094;28;20041;-75
2022/02/05 14:11:40;;;;;;;7.63;2.20;;;;;;;5.29;100.00;99582.94;5017573;28;20092;-75
2022/02/05 14:14:35;;;;;;;117.93;51.50;;;;;;;5.03;100.00;99564.97;5017416;28;20041;-76
2022/02/05 14:17:20;;;;;;;87.97;37.03;;;;;;;5.11;100.00;99595.19;5031385;28;20427;-76
2022/02/05 14:20:09;;;;;;;272.35;113.07;;;;;;;4.97;100.00;99599.59;5032086;28;20356;-76
2022/02/05 14:23:04;;;;;;;372.02;170.80;;;;;;;4.99;100.00;99602.19;5032208;28;20037;-75
2022/02/05 14:26:07;;;;;;;34.33;25.00;;;;;;;4.79;100.00;99597.97;5032919;28;20045;-76
2022/02/05 14:28:56;;;;;;;109.20;38.75;;;;;;;4.75;100.00;99605.78;5033425;28;20049;-75
2022/02/05 14:31:54;;;;;;;44.22;30.20;;;;;;;4.65;100.00;99598.03;5033560;28;20045;-76
2022/02/05 14:35:01;;;;;;;382.55;113.85;;;;;;;4.50;100.00;99605.03;5033465;28;20359;-75
2022/02/05 14:40:48;;;;;;;424.13;117.63;;;;;;;4.65;100.00;99631.78;5032211;28;20042;-75
2022/02/05 14:43:32;;;;;;;196.60;53.80;;;;;;;4.62;100.00;99607.56;5031752;28;20351;-76
2022/02/05 14:46:17;;;;;;;161.82;44.80;;;;;;;4.63;100.00;99610.16;5031667;28;20698;-76
2022/02/05 14:49:01;;;;;;;112.40;29.92;;;;;;;4.75;100.00;99626.56;5031543;28;20355;-75
2022/02/05 14:51:46;;;;;;;120.15;31.58;;;;;;;4.76;100.00;99625.66;5030823;28;20500;-74
2022/02/05 14:54:33;;;;;;;155.32;42.50;;;;;;;4.62;100.00;99639.56;5030749;28;20041;-75
2022/02/05 14:57:18;;;;;;;94.20;24.85;;;;;;;4.64;100.00;99624.84;5016830;28;20044;-75
2022/02/05 15:00:04;;;;;;;89.85;25.30;;;;;;;4.79;100.00;99656.81;5031341;28;20358;-75
2022/02/05 15:02:50;;;;;;;45.53;13.45;;;;;;;4.90;100.00;99655.88;5032009;28;20053;-75
2022/02/05 15:05:35;;;;;;;159.43;44.65;;;;;;;4.66;100.00;99637.81;5018333;28;20450;-75
2022/02/05 15:08:20;;;;;;;80.53;27.83;;;;;;;4.75;100.00;99639.53;5032471;28;20175;-75
2022/02/05 15:11:04;;;;;;;196.73;87.70;;;;;;;4.73;100.00;99649.03;5032761;28;20064;-84
2022/02/05 15:13:49;;;;;;;45.17;16.23;;;;;;;4.84;100.00;99655.91;5031445;28;20321;-82
2022/02/05 15:16:36;;;;;;;79.38;21.75;;;;;;;4.76;100.00;99660.25;5016549;28;20062;-83
2022/02/05 15:19:20;;;;;;;33.88;9.52;;;;;;;4.84;100.00;99662.81;5031185;28;20057;-82
2022/02/05 15:22:04;;;;;;;72.68;21.05;;;;;;;4.73;100.00;99668.06;5031042;28;20105;-82
2022/02/05 15:24:49;;;;;;;57.97;15.60;;;;;;;4.80;100.00;99674.09;5030429;28;20045;-83
2022/02/05 15:27:33;;;;;;;58.25;20.00;;;;;;;4.75;100.00;99675.84;5030244;28;20042;-82
2022/02/05 15:30:17;;;;;;;76.53;21.90;;;;;;;4.83;100.00;99687.91;5030964;28;20042;-81
2022/02/05 15:33:03;;;;;;;67.45;22.95;;;;;;;4.62;100.00;99673.28;5016387;28;20057;-82
2022/02/05 15:35:50;;;;;;;49.42;15.32;;;;;;;4.51;100.00;99679.38;5032443;28;20095;-82
2022/02/05 15:44:44;;;;;;;25.88;9.35;;;;;;;4.03;100.00;99682.06;5032544;28;20099;-82
2022/02/05 15:47:30;;;;;;;22.75;8.43;;;;;;;3.95;100.00;99684.63;5031944;28;20041;-82
2022/02/05 15:50:14;;;;;;;16.40;6.03;;;;;;;4.01;100.00;99694.13;5035114;28;20354;-83
2022/02/05 15:52:59;;;;;;;11.23;4.82;;;;;;;4.17;100.00;99701.03;5022015;28;20042;-82
2022/02/05 15:55:44;;;;;;;14.10;6.25;;;;;;;4.19;100.00;99704.50;5036200;28;20065;-83
2022/02/05 15:58:35;;;;;;;10.45;3.17;;;;;;;4.16;100.00;99701.03;5035365;28;20041;-82
2022/02/05 16:01:20;;;;;;;6.88;3.20;;;;;;;4.07;100.00;99706.25;5035592;28;20038;-82
2022/02/05 16:04:05;;;;;;;12.75;6.22;;;;;;;3.92;100.00;99702.75;5021565;28;20064;-83
2022/02/05 16:06:49;;;;;;;25.13;9.00;;;;;;;3.94;100.00;99716.59;5035966;28;20346;-83